sensor_id;sensor_type;location;lat;lon;timestamp;pressure;altitude;pressure_sealevel;temperature;humidity
54022;BME280;39936;51.058;17.220;2023-02-19T00:03:16;101474.25;;;4.99;100.00
54022;BME280;39936;51.058;17.220;2023-02-19T00:07:32;101493.70;;;5.16;100.00
54022;BME280;39936;51.058;17.220;2023-02-19T00:11:13;101476.25;;;5.18;100.00
54022;BME280;39936;51.058;17.220;2023-02-19T00:14:44;101474.73;;;5.26;100.00
54022;BME280;39936;51.058;17.220;2023-02-19T00:18:26;101471.99;;;5.32;100.00
54022;BME280;39936;51.058;17.220;2023-02-19T00:21:52;101476.78;;;5.33;100.00
54022;BME280;39936;51.058;17.220;2023-02-19T00:25:35;101452.70;;;5.10;100.00
54022;BME280;39936;51.058;17.220;2023-02-19T00:29:23;101439.45;;;4.98;100.00
54022;BME280;39936;51.058;17.220;2023-02-19T00:32:33;101461.82;;;5.30;100.00
54022;BME280;39936;51.058;17.220;2023-02-19T00:36:02;101425.16;;;5.15;100.00
54022;BME280;39936;51.058;17.220;2023-02-19T00:39:15;101457.17;;;5.29;100.00
54022;BME280;39936;51.058;17.220;2023-02-19T00:46:38;101443.12;;;5.24;100.00
54022;BME280;39936;51.058;17.220;2023-02-19T00:50:07;101452.39;;;5.23;100.00
54022;BME280;39936;51.058;17.220;2023-02-19T00:58:57;101444.50;;;5.19;100.00
54022;BME280;39936;51.058;17.220;2023-02-19T01:02:36;101430.63;;;5.04;100.00
54022;BME280;39936;51.058;17.220;2023-02-19T01:06:28;101442.57;;;5.09;100.00
54022;BME280;39936;51.058;17.220;2023-02-19T01:09:42;101442.58;;;5.06;100.00
54022;BME280;39936;51.058;17.220;2023-02-19T01:13:10;101438.27;;;5.04;100.00
54022;BME280;39936;51.058;17.220;2023-02-19T01:17:14;101433.68;;;5.03;100.00
54022;BME280;39936;51.058;17.220;2023-02-19T01:20:43;101430.31;;;5.06;100.00
54022;BME280;39936;51.058;17.220;2023-02-19T01:23:52;101420.56;;;5.06;100.00
54022;BME280;39936;51.058;17.220;2023-02-19T01:27:49;101415.48;;;5.01;100.00
54022;BME280;39936;51.058;17.220;2023-02-19T01:30:55;101409.52;;;4.94;100.00
54022;BME280;39936;51.058;17.220;2023-02-19T01:35:02;101415.16;;;5.00;100.00
54022;BME280;39936;51.058;17.220;2023-02-19T01:42:58;101409.74;;;5.01;100.00
54022;BME280;39936;51.058;17.220;2023-02-19T01:46:34;101399.45;;;4.97;100.00
54022;BME280;39936;51.058;17.220;2023-02-19T01:49:48;101399.53;;;4.99;100.00
54022;BME280;39936;51.058;17.220;2023-02-19T01:53:12;101401.45;;;4.95;100.00
54022;BME280;39936;51.058;17.220;2023-02-19T01:56:37;101400.24;;;4.94;100.00
54022;BME280;39936;51.058;17.220;2023-02-19T02:00:53;101398.32;;;4.95;100.00
54022;BME280;39936;51.058;17.220;2023-02-19T02:04:21;101383.09;;;4.91;100.00
54022;BME280;39936;51.058;17.220;2023-02-19T02:07:45;101382.94;;;4.94;100.00
54022;BME280;39936;51.058;17.220;2023-02-19T02:11:27;101370.61;;;4.89;100.00
54022;BME280;39936;51.058;17.220;2023-02-19T02:15:09;101366.73;;;4.89;100.00
54022;BME280;39936;51.058;17.220;2023-02-19T02:18:47;101366.61;;;4.88;100.00
54022;BME280;39936;51.058;17.220;2023-02-19T02:22:28;101361.85;;;4.90;100.00
54022;BME280;39936;51.058;17.220;2023-02-19T02:32:53;101319.99;;;4.80;100.00
54022;BME280;39936;51.058;17.220;2023-02-19T02:39:45;101353.01;;;5.07;100.00
54022;BME280;39936;51.058;17.220;2023-02-19T02:47:13;101333.96;;;5.10;100.00
54022;BME280;39936;51.058;17.220;2023-02-19T02:50:45;101294.37;;;4.91;100.00
54022;BME280;39936;51.058;17.220;2023-02-19T02:54:17;101332.43;;;5.15;100.00
54022;BME280;39936;51.058;17.220;2023-02-19T02:57:45;101291.44;;;4.82;100.00
54022;BME280;39936;51.058;17.220;2023-02-19T03:01:13;101325.05;;;5.04;100.00
54022;BME280;39936;51.058;17.220;2023-02-19T03:08:21;101316.59;;;5.02;100.00
54022;BME280;39936;51.058;17.220;2023-02-19T03:12:02;101318.41;;;5.02;100.00
54022;BME280;39936;51.058;17.220;2023-02-19T03:16:02;101317.19;;;4.95;100.00
54022;BME280;39936;51.058;17.220;2023-02-19T03:19:54;101308.34;;;4.88;100.00
54022;BME280;39936;51.058;17.220;2023-02-19T03:23:10;101319.81;;;4.92;100.00
54022;BME280;39936;51.058;17.220;2023-02-19T03:26:41;101320.67;;;4.92;100.00
54022;BME280;39936;51.058;17.220;2023-02-19T03:29:57;101311.40;;;4.86;100.00
54022;BME280;39936;51.058;17.220;2023-02-19T03:33:35;101287.55;;;4.79;100.00
54022;BME280;39936;51.058;17.220;2023-02-19T03:37:15;101309.70;;;4.97;100.00
54022;BME280;39936;51.058;17.220;2023-02-19T04:03:15;101279.66;;;5.09;100.00
54022;BME280;39936;51.058;17.220;2023-02-19T04:06:28;101290.18;;;5.10;100.00
54022;BME280;39936;51.058;17.220;2023-02-19T04:09:45;101292.70;;;5.20;100.00
54022;BME280;39936;51.058;17.220;2023-02-19T04:13:05;101287.70;;;5.25;100.00
54022;BME280;39936;51.058;17.220;2023-02-19T04:16:41;101282.14;;;5.29;100.00
54022;BME280;39936;51.058;17.220;2023-02-19T04:20:12;101277.96;;;5.24;100.00
54022;BME280;39936;51.058;17.220;2023-02-19T04:23:22;101278.84;;;5.26;100.00
54022;BME280;39936;51.058;17.220;2023-02-19T04:26:59;101247.09;;;5.11;100.00
54022;BME280;39936;51.058;17.220;2023-02-19T04:30:40;101274.74;;;5.32;100.00
54022;BME280;39936;51.058;17.220;2023-02-19T04:34:18;101279.24;;;5.28;100.00
54022;BME280;39936;51.058;17.220;2023-02-19T04:38:12;101278.09;;;5.20;100.00
54022;BME280;39936;51.058;17.220;2023-02-19T04:41:31;101270.53;;;5.21;100.00
54022;BME280;39936;51.058;17.220;2023-02-19T04:48:56;101272.38;;;5.17;100.00
54022;BME280;39936;51.058;17.220;2023-02-19T04:52:10;101268.15;;;5.14;100.00
54022;BME280;39936;51.058;17.220;2023-02-19T04:55:19;101264.57;;;5.13;100.00
54022;BME280;39936;51.058;17.220;2023-02-19T04:58:50;101259.37;;;5.08;100.00
54022;BME280;39936;51.058;17.220;2023-02-19T05:02:06;101261.11;;;5.07;100.00
54022;BME280;39936;51.058;17.220;2023-02-19T05:05:37;101258.70;;;5.09;100.00
54022;BME280;39936;51.058;17.220;2023-02-19T05:09:06;101243.45;;;5.08;100.00
54022;BME280;39936;51.058;17.220;2023-02-19T05:12:44;101247.13;;;5.16;100.00
54022;BME280;39936;51.058;17.220;2023-02-19T05:16:25;101250.49;;;5.12;100.00
54022;BME280;39936;51.058;17.220;2023-02-19T05:19:53;101247.51;;;5.14;100.00
54022;BME280;39936;51.058;17.220;2023-02-19T05:23:23;101242.55;;;5.14;100.00
54022;BME280;39936;51.058;17.220;2023-02-19T05:27:35;101246.63;;;5.12;100.00
54022;BME280;39936;51.058;17.220;2023-02-19T05:31:08;101246.59;;;5.09;100.00
54022;BME280;39936;51.058;17.220;2023-02-19T05:34:38;101249.27;;;5.08;100.00
54022;BME280;39936;51.058;17.220;2023-02-19T05:37:58;101248.89;;;5.06;100.00
54022;BME280;39936;51.058;17.220;2023-02-19T05:41:27;101244.58;;;5.05;100.00
54022;BME280;39936;51.058;17.220;2023-02-19T05:44:36;101243.62;;;5.07;100.00
54022;BME280;39936;51.058;17.220;2023-02-19T05:47:58;101237.63;;;5.06;100.00
54022;BME280;39936;51.058;17.220;2023-02-19T05:51:12;101237.65;;;5.09;100.00
54022;BME280;39936;51.058;17.220;2023-02-19T05:54:28;101239.04;;;5.09;100.00
54022;BME280;39936;51.058;17.220;2023-02-19T05:58:08;101218.46;;;4.97;100.00
54022;BME280;39936;51.058;17.220;2023-02-19T06:01:30;101242.14;;;5.07;100.00
54022;BME280;39936;51.058;17.220;2023-02-19T06:09:35;101238.90;;;5.04;100.00
54022;BME280;39936;51.058;17.220;2023-02-19T06:12:49;101234.44;;;5.02;100.00
54022;BME280;39936;51.058;17.220;2023-02-19T06:16:30;101202.96;;;4.78;100.00
54022;BME280;39936;51.058;17.220;2023-02-19T06:19:49;101242.05;;;4.98;100.00
54022;BME280;39936;51.058;17.220;2023-02-19T06:23:07;101246.39;;;4.97;100.00
54022;BME280;39936;51.058;17.220;2023-02-19T06:26:35;101239.52;;;4.92;100.00
54022;BME280;39936;51.058;17.220;2023-02-19T06:30:08;101252.60;;;4.93;100.00
54022;BME280;39936;51.058;17.220;2023-02-19T06:33:27;101257.08;;;4.93;100.00
54022;BME280;39936;51.058;17.220;2023-02-19T06:36:58;101253.00;;;4.91;100.00
54022;BME280;39936;51.058;17.220;2023-02-19T06:40:18;101257.27;;;4.87;100.00
54022;BME280;39936;51.058;17.220;2023-02-19T06:43:59;101260.00;;;4.86;100.00
54022;BME280;39936;51.058;17.220;2023-02-19T06:47:51;101230.11;;;4.61;100.00
54022;BME280;39936;51.058;17.220;2023-02-19T06:51:24;101268.66;;;4.82;100.00
54022;BME280;39936;51.058;17.220;2023-02-19T06:55:22;101271.59;;;4.80;100.00
54022;BME280;39936;51.058;17.220;2023-02-19T06:59:16;101251.29;;;4.63;100.00
54022;BME280;39936;51.058;17.220;2023-02-19T07:02:49;101293.07;;;4.66;100.00
54022;BME280;39936;51.058;17.220;2023-02-19T07:06:28;101284.77;;;4.26;100.00
54022;BME280;39936;51.058;17.220;2023-02-19T07:09:57;101284.68;;;4.14;100.00
54022;BME280;39936;51.058;17.220;2023-02-19T07:13:31;101296.30;;;4.03;100.00
54022;BME280;39936;51.058;17.220;2023-02-19T07:17:25;101304.95;;;4.03;100.00
54022;BME280;39936;51.058;17.220;2023-02-19T07:20:34;101319.41;;;4.06;100.00
54022;BME280;39936;51.058;17.220;2023-02-19T07:24:24;101323.70;;;3.91;100.00
54022;BME280;39936;51.058;17.220;2023-02-19T07:28:16;101325.61;;;3.76;100.00
54022;BME280;39936;51.058;17.220;2023-02-19T07:31:44;101339.91;;;3.72;100.00
54022;BME280;39936;51.058;17.220;2023-02-19T07:34:55;101352.07;;;3.63;100.00
54022;BME280;39936;51.058;17.220;2023-02-19T07:38:25;101354.12;;;3.61;100.00
54022;BME280;39936;51.058;17.220;2023-02-19T07:42:05;101362.53;;;3.54;100.00
54022;BME280;39936;51.058;17.220;2023-02-19T07:45:17;101364.28;;;3.52;100.00
54022;BME280;39936;51.058;17.220;2023-02-19T07:52:43;101381.48;;;3.40;100.00
54022;BME280;39936;51.058;17.220;2023-02-19T07:55:50;101383.94;;;3.35;100.00
54022;BME280;39936;51.058;17.220;2023-02-19T07:59:00;101395.70;;;3.25;100.00
54022;BME280;39936;51.058;17.220;2023-02-19T08:03:01;101407.01;;;3.20;100.00
54022;BME280;39936;51.058;17.220;2023-02-19T08:06:10;101420.36;;;2.84;100.00
54022;BME280;39936;51.058;17.220;2023-02-19T08:09:37;101442.23;;;2.64;100.00
54022;BME280;39936;51.058;17.220;2023-02-19T08:13:11;101440.33;;;2.45;100.00
54022;BME280;39936;51.058;17.220;2023-02-19T08:16:52;101441.45;;;2.37;100.00
54022;BME280;39936;51.058;17.220;2023-02-19T08:20:21;101445.94;;;2.29;100.00
54022;BME280;39936;51.058;17.220;2023-02-19T08:24:24;101426.57;;;2.04;100.00
54022;BME280;39936;51.058;17.220;2023-02-19T08:27:54;101453.98;;;2.16;100.00
54022;BME280;39936;51.058;17.220;2023-02-19T08:32:09;101460.02;;;2.16;100.00
54022;BME280;39936;51.058;17.220;2023-02-19T08:35:51;101469.10;;;2.02;100.00
54022;BME280;39936;51.058;17.220;2023-02-19T08:40:07;101474.28;;;1.98;100.00
54022;BME280;39936;51.058;17.220;2023-02-19T08:43:36;101478.26;;;1.97;100.00
54022;BME280;39936;51.058;17.220;2023-02-19T08:51:10;101493.27;;;2.04;100.00
54022;BME280;39936;51.058;17.220;2023-02-19T08:54:37;101500.92;;;1.92;100.00
54022;BME280;39936;51.058;17.220;2023-02-19T08:58:10;101502.66;;;1.76;100.00
54022;BME280;39936;51.058;17.220;2023-02-19T09:02:02;101510.69;;;1.80;100.00
54022;BME280;39936;51.058;17.220;2023-02-19T09:05:11;101509.42;;;1.82;100.00
54022;BME280;39936;51.058;17.220;2023-02-19T09:08:20;101506.18;;;1.84;100.00
54022;BME280;39936;51.058;17.220;2023-02-19T09:11:46;101515.91;;;1.86;100.00
54022;BME280;39936;51.058;17.220;2023-02-19T09:15:31;101514.62;;;1.95;100.00
54022;BME280;39936;51.058;17.220;2023-02-19T09:18:56;101519.37;;;1.94;100.00
54022;BME280;39936;51.058;17.220;2023-02-19T09:22:09;101526.03;;;1.97;100.00
54022;BME280;39936;51.058;17.220;2023-02-19T09:25:19;101509.15;;;1.86;100.00
54022;BME280;39936;51.058;17.220;2023-02-19T09:28:46;101510.55;;;1.90;100.00
54022;BME280;39936;51.058;17.220;2023-02-19T09:32:17;101541.97;;;2.03;100.00
54022;BME280;39936;51.058;17.220;2023-02-19T09:36:04;101552.49;;;2.10;100.00
54022;BME280;39936;51.058;17.220;2023-02-19T09:39:30;101558.70;;;2.20;100.00
54022;BME280;39936;51.058;17.220;2023-02-19T09:42:40;101567.41;;;2.23;100.00
54022;BME280;39936;51.058;17.220;2023-02-19T09:50:00;101566.61;;;2.34;100.00
54022;BME280;39936;51.058;17.220;2023-02-19T09:53:36;101571.96;;;2.46;100.00
54022;BME280;39936;51.058;17.220;2023-02-19T09:56:55;101563.12;;;2.59;100.00
54022;BME280;39936;51.058;17.220;2023-02-19T10:00:25;101563.19;;;2.71;100.00
54022;BME280;39936;51.058;17.220;2023-02-19T10:03:59;101571.89;;;2.74;100.00
54022;BME280;39936;51.058;17.220;2023-02-19T10:07:52;101576.45;;;2.87;100.00
54022;BME280;39936;51.058;17.220;2023-02-19T10:11:15;101591.40;;;2.84;100.00
54022;BME280;39936;51.058;17.220;2023-02-19T10:14:33;101599.49;;;2.80;100.00
54022;BME280;39936;51.058;17.220;2023-02-19T10:17:51;101606.24;;;2.85;100.00
54022;BME280;39936;51.058;17.220;2023-02-19T10:21:52;101607.88;;;2.96;100.00
54022;BME280;39936;51.058;17.220;2023-02-19T10:25:23;101613.73;;;3.02;100.00
54022;BME280;39936;51.058;17.220;2023-02-19T10:29:15;101624.65;;;3.04;100.00
54022;BME280;39936;51.058;17.220;2023-02-19T10:32:27;101630.17;;;3.06;100.00
54022;BME280;39936;51.058;17.220;2023-02-19T10:39:54;101649.54;;;3.05;100.00
54022;BME280;39936;51.058;17.220;2023-02-19T10:43:35;101647.41;;;3.08;100.00
54022;BME280;39936;51.058;17.220;2023-02-19T10:46:47;101653.46;;;3.18;100.00
54022;BME280;39936;51.058;17.220;2023-02-19T10:50:25;101651.08;;;3.20;100.00
54022;BME280;39936;51.058;17.220;2023-02-19T10:57:34;101661.72;;;3.25;100.00
54022;BME280;39936;51.058;17.220;2023-02-19T11:01:10;101659.34;;;3.26;100.00
54022;BME280;39936;51.058;17.220;2023-02-19T11:04:38;101677.55;;;3.30;100.00
54022;BME280;39936;51.058;17.220;2023-02-19T11:08:49;101690.64;;;3.28;100.00
54022;BME280;39936;51.058;17.220;2023-02-19T11:12:30;101687.10;;;3.30;100.00
54022;BME280;39936;51.058;17.220;2023-02-19T11:15:53;101686.26;;;3.32;100.00
54022;BME280;39936;51.058;17.220;2023-02-19T11:26:45;101695.79;;;3.43;100.00
54022;BME280;39936;51.058;17.220;2023-02-19T11:30:41;101691.68;;;3.45;100.00
54022;BME280;39936;51.058;17.220;2023-02-19T11:34:24;101695.28;;;3.48;100.00
54022;BME280;39936;51.058;17.220;2023-02-19T11:37:56;101698.18;;;3.46;100.00
54022;BME280;39936;51.058;17.220;2023-02-19T12:43:33;101729.96;;;4.19;87.09
54022;BME280;39936;51.058;17.220;2023-02-19T12:47:06;101745.34;;;4.28;83.07
54022;BME280;39936;51.058;17.220;2023-02-19T12:50:39;101756.19;;;4.10;84.16
54022;BME280;39936;51.058;17.220;2023-02-19T12:54:01;101767.77;;;3.96;84.76
54022;BME280;39936;51.058;17.220;2023-02-19T12:57:37;101771.63;;;3.92;85.07
54022;BME280;39936;51.058;17.220;2023-02-19T13:01:35;101773.87;;;3.79;83.12
54022;BME280;39936;51.058;17.220;2023-02-19T13:05:20;101783.60;;;3.83;86.39
54022;BME280;39936;51.058;17.220;2023-02-19T13:12:38;101792.27;;;3.91;84.79
54022;BME280;39936;51.058;17.220;2023-02-19T13:15:54;101802.80;;;3.94;84.65
54022;BME280;39936;51.058;17.220;2023-02-19T13:19:25;101813.84;;;4.00;84.83
54022;BME280;39936;51.058;17.220;2023-02-19T13:30:52;101806.35;;;3.81;80.76
54022;BME280;39936;51.058;17.220;2023-02-19T13:38:07;101828.16;;;3.91;77.84
54022;BME280;39936;51.058;17.220;2023-02-19T13:41:48;101821.76;;;3.98;76.56
54022;BME280;39936;51.058;17.220;2023-02-19T13:45:43;101822.28;;;3.99;76.31
54022;BME280;39936;51.058;17.220;2023-02-19T13:49:50;101834.73;;;4.03;77.31
54022;BME280;39936;51.058;17.220;2023-02-19T13:54:18;101842.98;;;3.99;75.88
54022;BME280;39936;51.058;17.220;2023-02-19T13:57:40;101840.39;;;3.93;76.97
54022;BME280;39936;51.058;17.220;2023-02-19T14:00:51;101845.00;;;3.89;77.80
54022;BME280;39936;51.058;17.220;2023-02-19T14:08:38;101855.01;;;3.82;73.20
54022;BME280;39936;51.058;17.220;2023-02-19T14:15:48;101856.30;;;3.70;74.81
54022;BME280;39936;51.058;17.220;2023-02-19T14:23:24;101859.20;;;3.74;72.94
54022;BME280;39936;51.058;17.220;2023-02-19T14:27:20;101869.85;;;3.69;72.86
54022;BME280;39936;51.058;17.220;2023-02-19T14:30:25;101871.83;;;3.61;73.25
54022;BME280;39936;51.058;17.220;2023-02-19T14:37:43;101877.12;;;3.66;73.69
54022;BME280;39936;51.058;17.220;2023-02-19T14:41:37;101884.01;;;3.69;72.49
54022;BME280;39936;51.058;17.220;2023-02-19T14:45:09;101887.28;;;3.71;73.03
54022;BME280;39936;51.058;17.220;2023-02-19T14:48:44;101885.60;;;3.73;72.29
54022;BME280;39936;51.058;17.220;2023-02-19T14:55:20;101905.49;;;3.76;75.87
54022;BME280;39936;51.058;17.220;2023-02-19T14:58:34;101909.62;;;3.78;74.01
54022;BME280;39936;51.058;17.220;2023-02-19T15:02:30;101915.54;;;3.77;72.59
54022;BME280;39936;51.058;17.220;2023-02-19T15:06:43;101913.48;;;3.67;71.47
54022;BME280;39936;51.058;17.220;2023-02-19T15:10:25;101935.77;;;3.57;72.55
54022;BME280;39936;51.058;17.220;2023-02-19T15:13:58;101944.58;;;3.57;73.24
54022;BME280;39936;51.058;17.220;2023-02-19T15:17:14;101937.72;;;3.54;71.58
54022;BME280;39936;51.058;17.220;2023-02-19T15:21:03;101944.98;;;3.56;72.89
54022;BME280;39936;51.058;17.220;2023-02-19T15:24:18;101955.48;;;3.48;72.23
54022;BME280;39936;51.058;17.220;2023-02-19T15:31:59;101949.41;;;3.34;73.44
54022;BME280;39936;51.058;17.220;2023-02-19T15:35:20;101956.47;;;3.26;74.20
54022;BME280;39936;51.058;17.220;2023-02-19T15:38:29;101966.16;;;3.15;74.76
54022;BME280;39936;51.058;17.220;2023-02-19T15:42:01;101971.05;;;3.13;74.93
54022;BME280;39936;51.058;17.220;2023-02-19T15:45:38;101978.16;;;3.11;75.28
54022;BME280;39936;51.058;17.220;2023-02-19T15:49:20;101987.54;;;3.08;75.73
54022;BME280;39936;51.058;17.220;2023-02-19T15:52:47;101992.17;;;3.01;77.08
54022;BME280;39936;51.058;17.220;2023-02-19T15:56:34;101966.77;;;2.74;77.39
54022;BME280;39936;51.058;17.220;2023-02-19T16:03:24;101980.70;;;2.70;78.81
54022;BME280;39936;51.058;17.220;2023-02-19T16:13:55;102028.34;;;2.80;79.98
54022;BME280;39936;51.058;17.220;2023-02-19T16:18:13;102035.15;;;2.77;80.55
54022;BME280;39936;51.058;17.220;2023-02-19T16:22:03;102036.27;;;2.74;80.46
54022;BME280;39936;51.058;17.220;2023-02-19T16:25:39;102040.89;;;2.72;80.26
54022;BME280;39936;51.058;17.220;2023-02-19T16:29:23;102046.35;;;2.75;79.82
54022;BME280;39936;51.058;17.220;2023-02-19T16:44:49;102058.54;;;2.79;78.61
54022;BME280;39936;51.058;17.220;2023-02-19T16:48:17;102062.62;;;2.73;78.74
54022;BME280;39936;51.058;17.220;2023-02-19T16:51:27;102066.54;;;2.66;78.93
54022;BME280;39936;51.058;17.220;2023-02-19T16:54:33;102082.22;;;2.77;79.10
54022;BME280;39936;51.058;17.220;2023-02-19T16:58:22;102083.98;;;2.76;78.72
54022;BME280;39936;51.058;17.220;2023-02-19T17:01:44;102094.21;;;2.77;78.92
54022;BME280;39936;51.058;17.220;2023-02-19T17:05:10;102097.06;;;2.79;78.91
54022;BME280;39936;51.058;17.220;2023-02-19T17:11:40;102114.67;;;2.93;78.36
54022;BME280;39936;51.058;17.220;2023-02-19T17:15:40;102123.68;;;2.92;78.64
54022;BME280;39936;51.058;17.220;2023-02-19T17:19:21;102133.61;;;2.91;78.28
54022;BME280;39936;51.058;17.220;2023-02-19T17:22:53;102142.66;;;2.94;78.38
54022;BME280;39936;51.058;17.220;2023-02-19T17:26:30;102141.56;;;2.93;77.84
54022;BME280;39936;51.058;17.220;2023-02-19T17:29:38;102153.09;;;2.94;78.27
54022;BME280;39936;51.058;17.220;2023-02-19T17:32:45;102147.95;;;2.91;78.08
54022;BME280;39936;51.058;17.220;2023-02-19T17:36:23;102152.35;;;2.92;78.35
54022;BME280;39936;51.058;17.220;2023-02-19T17:43:44;102157.08;;;2.86;78.20
54022;BME280;39936;51.058;17.220;2023-02-19T17:47:28;102156.92;;;2.85;78.52
54022;BME280;39936;51.058;17.220;2023-02-19T17:51:01;102166.77;;;2.77;78.65
54022;BME280;39936;51.058;17.220;2023-02-19T17:54:10;102168.30;;;2.73;79.12
54022;BME280;39936;51.058;17.220;2023-02-19T17:57:16;102170.11;;;2.70;79.10
54022;BME280;39936;51.058;17.220;2023-02-19T18:01:08;102172.75;;;2.68;79.13
54022;BME280;39936;51.058;17.220;2023-02-19T18:04:38;102181.85;;;2.64;79.73
54022;BME280;39936;51.058;17.220;2023-02-19T18:15:45;102195.23;;;2.53;80.22
54022;BME280;39936;51.058;17.220;2023-02-19T18:19:35;102202.37;;;2.49;80.52
54022;BME280;39936;51.058;17.220;2023-02-19T18:22:49;102207.87;;;2.45;81.02
54022;BME280;39936;51.058;17.220;2023-02-19T18:26:18;102203.63;;;2.41;81.33
54022;BME280;39936;51.058;17.220;2023-02-19T18:29:30;102208.23;;;2.39;80.96
54022;BME280;39936;51.058;17.220;2023-02-19T18:33:42;102180.98;;;2.15;81.52
54022;BME280;39936;51.058;17.220;2023-02-19T18:36:52;102222.70;;;2.38;81.37
54022;BME280;39936;51.058;17.220;2023-02-19T18:40:25;102229.18;;;2.36;81.35
54022;BME280;39936;51.058;17.220;2023-02-19T18:44:19;102231.38;;;2.36;80.77
54022;BME280;39936;51.058;17.220;2023-02-19T18:47:27;102237.74;;;2.40;79.65
54022;BME280;39936;51.058;17.220;2023-02-19T18:50:54;102205.24;;;2.18;80.03
54022;BME280;39936;51.058;17.220;2023-02-19T18:54:24;102237.74;;;2.39;80.63
54022;BME280;39936;51.058;17.220;2023-02-19T18:57:35;102242.11;;;2.35;80.25
54022;BME280;39936;51.058;17.220;2023-02-19T19:01:16;102246.71;;;2.34;80.53
54022;BME280;39936;51.058;17.220;2023-02-19T19:05:07;102245.87;;;2.26;80.85
54022;BME280;39936;51.058;17.220;2023-02-19T19:08:36;102243.18;;;2.21;80.71
54022;BME280;39936;51.058;17.220;2023-02-19T19:12:42;102250.80;;;2.19;80.89
54022;BME280;39936;51.058;17.220;2023-02-19T19:16:17;102256.67;;;2.10;81.52
54022;BME280;39936;51.058;17.220;2023-02-19T19:19:56;102256.03;;;2.02;81.74
54022;BME280;39936;51.058;17.220;2023-02-19T19:23:59;102264.50;;;2.01;81.86
54022;BME280;39936;51.058;17.220;2023-02-19T19:27:29;102263.28;;;1.98;82.04
54022;BME280;39936;51.058;17.220;2023-02-19T19:31:34;102269.75;;;1.92;82.29
54022;BME280;39936;51.058;17.220;2023-02-19T19:39:09;102276.94;;;1.79;82.93
54022;BME280;39936;51.058;17.220;2023-02-19T19:42:39;102283.81;;;1.75;83.32
54022;BME280;39936;51.058;17.220;2023-02-19T19:57:44;102299.41;;;1.54;84.75
54022;BME280;39936;51.058;17.220;2023-02-19T20:04:53;102311.99;;;1.58;85.19
54022;BME280;39936;51.058;17.220;2023-02-19T20:12:33;102320.52;;;1.54;85.56
54022;BME280;39936;51.058;17.220;2023-02-19T20:16:34;102320.68;;;1.51;85.82
54022;BME280;39936;51.058;17.220;2023-02-19T20:24:18;102316.48;;;1.43;86.05
54022;BME280;39936;51.058;17.220;2023-02-19T20:27:51;102322.17;;;1.47;86.14
54022;BME280;39936;51.058;17.220;2023-02-19T20:31:14;102323.78;;;1.43;86.23
54022;BME280;39936;51.058;17.220;2023-02-19T20:34:33;102325.81;;;1.42;86.18
54022;BME280;39936;51.058;17.220;2023-02-19T20:38:15;102318.95;;;1.41;86.21
54022;BME280;39936;51.058;17.220;2023-02-19T20:42:00;102326.75;;;1.37;86.35
54022;BME280;39936;51.058;17.220;2023-02-19T20:45:35;102320.67;;;1.24;87.01
54022;BME280;39936;51.058;17.220;2023-02-19T20:49:20;102342.52;;;1.19;87.75
54022;BME280;39936;51.058;17.220;2023-02-19T20:53:08;102341.38;;;1.06;88.44
54022;BME280;39936;51.058;17.220;2023-02-19T20:56:48;102357.06;;;1.06;89.30
54022;BME280;39936;51.058;17.220;2023-02-19T21:00:36;102366.08;;;1.06;89.58
54022;BME280;39936;51.058;17.220;2023-02-19T21:03:47;102359.07;;;0.97;90.41
54022;BME280;39936;51.058;17.220;2023-02-19T21:07:35;102357.47;;;0.88;91.14
54022;BME280;39936;51.058;17.220;2023-02-19T21:10:57;102360.38;;;0.90;91.49
54022;BME280;39936;51.058;17.220;2023-02-19T21:14:06;102355.51;;;0.88;91.67
54022;BME280;39936;51.058;17.220;2023-02-19T21:17:27;102338.07;;;0.73;91.98
54022;BME280;39936;51.058;17.220;2023-02-19T21:21:24;102364.70;;;0.85;92.66
54022;BME280;39936;51.058;17.220;2023-02-19T21:25:28;102374.95;;;0.84;93.02
54022;BME280;39936;51.058;17.220;2023-02-19T21:28:42;102381.12;;;0.81;93.25
54022;BME280;39936;51.058;17.220;2023-02-19T21:32:11;102385.21;;;0.78;93.40
54022;BME280;39936;51.058;17.220;2023-02-19T21:35:40;102392.28;;;0.75;93.69
54022;BME280;39936;51.058;17.220;2023-02-19T21:43:17;102368.99;;;0.55;94.25
54022;BME280;39936;51.058;17.220;2023-02-19T21:47:17;102398.15;;;0.69;94.39
54022;BME280;39936;51.058;17.220;2023-02-19T21:50:49;102375.77;;;0.54;94.41
54022;BME280;39936;51.058;17.220;2023-02-19T21:54:12;102401.52;;;0.72;94.26
54022;BME280;39936;51.058;17.220;2023-02-19T21:58:10;102409.03;;;0.71;94.24
54022;BME280;39936;51.058;17.220;2023-02-19T22:01:51;102405.65;;;0.63;94.24
54022;BME280;39936;51.058;17.220;2023-02-19T22:05:53;102424.04;;;0.72;94.12
54022;BME280;39936;51.058;17.220;2023-02-19T22:13:22;102427.91;;;0.72;93.87
54022;BME280;39936;51.058;17.220;2023-02-19T22:21:10;102410.48;;;0.61;93.39
54022;BME280;39936;51.058;17.220;2023-02-19T22:24:19;102424.46;;;0.63;93.29
54022;BME280;39936;51.058;17.220;2023-02-19T22:31:22;102417.95;;;0.52;93.69
54022;BME280;39936;51.058;17.220;2023-02-19T22:34:41;102437.94;;;0.66;93.64
54022;BME280;39936;51.058;17.220;2023-02-19T22:38:12;102439.10;;;0.68;93.58
54022;BME280;39936;51.058;17.220;2023-02-19T22:42:02;102443.29;;;0.68;93.49
54022;BME280;39936;51.058;17.220;2023-02-19T22:45:21;102454.30;;;0.67;93.60
54022;BME280;39936;51.058;17.220;2023-02-19T22:48:29;102452.77;;;0.65;93.66
54022;BME280;39936;51.058;17.220;2023-02-19T22:51:39;102451.02;;;0.58;94.05
54022;BME280;39936;51.058;17.220;2023-02-19T22:55:16;102458.38;;;0.57;94.22
54022;BME280;39936;51.058;17.220;2023-02-19T22:58:42;102452.52;;;0.54;94.52